Time;durP1;ratioP1;P1;durP2;ratioP2;P2;SDS_P1;SDS_P2;PMS_P1;PMS_P2;Temp;Humidity;BMP_temperature;BMP_pressure;BME280_temperature;BME280_humidity;BME280_pressure;Samples;Min_cycle;Max_cycle;Signal;HPM_P1;HPM_P2
2021/07/19 00:00:38;;;;;;;0.10;0.10;;;;;;;13.53;75.54;101448.66;5030154;28;20053;-84
2021/07/19 00:03:15;;;;;;;0.20;0.20;;;;;;;13.47;76.27;101440.78;5049006;28;20074;-85
2021/07/19 00:05:48;;;;;;;0.13;0.13;;;;;;;13.50;74.93;101445.69;5032843;28;20069;-86
2021/07/19 00:08:23;;;;;;;0.20;0.20;;;;;;;13.45;76.80;101441.06;5044910;28;20056;-85
2021/07/19 00:10:56;;;;;;;0.20;0.20;;;;;;;13.46;74.54;101439.16;5034661;28;20045;-85
2021/07/19 00:13:25;;;;;;;0.20;0.20;;;;;;;13.39;75.11;101426.59;5041102;28;20052;-84
2021/07/19 00:15:59;;;;;;;0.10;0.10;;;;;;;13.41;74.66;101440.81;5050401;28;20050;-85
2021/07/19 00:18:38;;;;;;;0.20;0.20;;;;;;;13.43;74.76;101448.72;5033310;28;20601;-85
2021/07/19 00:21:11;;;;;;;0.20;0.20;;;;;;;13.53;74.72;101439.66;5034704;28;20045;-85
2021/07/19 00:24:14;;;;;;;0.10;0.10;;;;;;;13.58;75.24;101440.44;5029340;28;20053;-85
2021/07/19 00:26:48;;;;;;;0.20;0.20;;;;;;;13.50;74.71;101434.75;5031287;28;20409;-85
2021/07/19 00:29:21;;;;;;;0.25;0.25;;;;;;;13.51;75.17;101439.13;5045391;28;20041;-85
2021/07/19 00:31:55;;;;;;;0.10;0.10;;;;;;;13.54;75.53;101439.38;5049172;28;20045;-84
2021/07/19 00:34:28;;;;;;;0.20;0.20;;;;;;;13.41;76.75;101429.88;5048543;28;20470;-83
2021/07/19 00:36:58;;;;;;;0.20;0.20;;;;;;;13.48;75.83;101435.03;5026465;28;20053;-85
2021/07/19 00:39:28;;;;;;;0.20;0.20;;;;;;;13.51;75.24;101439.13;5051027;28;20045;-85
2021/07/19 00:42:01;;;;;;;0.30;0.30;;;;;;;13.53;77.12;101439.66;5022466;28;20041;-85
2021/07/19 00:44:36;;;;;;;0.20;0.20;;;;;;;13.59;75.81;101433.88;5046997;28;20053;-85
2021/07/19 00:47:06;;;;;;;0.20;0.20;;;;;;;13.58;74.53;101434.97;5051916;28;20041;-85
2021/07/19 00:49:35;;;;;;;0.10;0.10;;;;;;;13.48;76.54;101421.38;5047110;28;20057;-84
2021/07/19 00:52:09;;;;;;;0.20;0.20;;;;;;;13.58;75.54;101437.69;5057192;28;20391;-84
2021/07/19 00:54:47;;;;;;;0.20;0.20;;;;;;;13.57;75.53;101432.53;5035289;28;20056;-85
2021/07/19 00:57:22;;;;;;;0.20;0.20;;;;;;;13.54;74.94;101424.88;5030982;28;20056;-85
2021/07/19 00:59:59;;;;;;;0.20;0.20;;;;;;;13.75;76.07;101428.31;5028534;28;20056;-84
2021/07/19 01:02:35;;;;;;;0.10;0.10;;;;;;;13.70;76.35;101431.06;5033105;28;20056;-85
2021/07/19 01:05:10;;;;;;;0.20;0.20;;;;;;;13.72;76.00;101432.44;5030072;28;20493;-86
2021/07/19 01:07:48;;;;;;;0.10;0.10;;;;;;;13.67;75.33;101437.94;5049061;28;20049;-84
2021/07/19 01:10:25;;;;;;;0.28;0.28;;;;;;;13.65;76.60;101434.66;5034008;28;20056;-84
2021/07/19 01:12:57;;;;;;;0.20;0.20;;;;;;;13.67;76.03;101437.13;5047173;28;20493;-85
2021/07/19 01:15:34;;;;;;;0.20;0.20;;;;;;;13.60;75.38;101430.06;5029866;28;20046;-86
2021/07/19 01:18:10;;;;;;;0.20;0.20;;;;;;;13.57;76.67;101429.78;5031045;28;20087;-85
2021/07/19 01:21:11;;;;;;;0.20;0.20;;;;;;;13.62;76.82;101427.03;5035189;28;20063;-85
2021/07/19 01:24:09;;;;;;;0.20;0.20;;;;;;;13.60;76.45;101426.47;5047747;28;20052;-85
2021/07/19 01:27:12;;;;;;;0.25;0.25;;;;;;;13.56;75.88;101423.50;5036323;28;20049;-85
2021/07/19 01:29:50;;;;;;;0.20;0.20;;;;;;;13.62;75.85;101429.75;5030713;28;20051;-85
2021/07/19 01:32:25;;;;;;;0.10;0.10;;;;;;;13.64;75.10;101437.69;5023375;28;20486;-85
2021/07/19 01:34:55;;;;;;;0.20;0.20;;;;;;;13.61;74.37;101437.13;5031822;28;20046;-85
2021/07/19 01:37:27;;;;;;;0.13;0.13;;;;;;;13.70;75.08;101437.38;5027245;28;20056;-85
2021/07/19 01:40:09;;;;;;;0.20;0.20;;;;;;;13.63;76.03;101438.78;5031582;28;20068;-85
2021/07/19 01:42:44;;;;;;;0.20;0.20;;;;;;;13.63;75.42;101436.88;5050631;28;20037;-85
2021/07/19 01:45:15;;;;;;;0.15;0.15;;;;;;;13.59;74.61;101438.53;5029343;28;20532;-85
2021/07/19 01:47:50;;;;;;;0.17;0.17;;;;;;;13.69;76.62;101434.94;5028682;28;20051;-85
2021/07/19 01:50:25;;;;;;;0.10;0.10;;;;;;;13.65;75.92;101428.38;5033857;28;20057;-85
2021/07/19 01:53:18;;;;;;;0.20;0.20;;;;;;;13.56;75.87;101426.25;5059087;28;20095;-85
2021/07/19 01:55:53;;;;;;;0.20;0.20;;;;;;;13.58;74.68;101420.50;5032481;28;20053;-84
2021/07/19 01:58:30;;;;;;;0.20;0.20;;;;;;;13.65;74.66;101431.13;5044013;28;20500;-85
2021/07/19 02:01:13;;;;;;;0.20;0.20;;;;;;;13.68;75.61;101434.09;5033459;28;20080;-84
2021/07/19 02:03:46;;;;;;;0.20;0.20;;;;;;;13.68;76.58;101431.34;5032725;28;20052;-85
2021/07/19 02:06:20;;;;;;;0.20;0.20;;;;;;;13.57;75.61;101427.84;5028199;28;20053;-85
2021/07/19 02:09:05;;;;;;;0.20;0.20;;;;;;;13.64;75.11;101432.22;5030835;28;20050;-84
2021/07/19 02:11:53;;;;;;;0.20;0.20;;;;;;;13.67;76.00;101427.00;5043068;28;20052;-85
2021/07/19 02:14:22;;;;;;;0.10;0.10;;;;;;;13.64;75.32;101434.94;5041787;28;20045;-84
2021/07/19 02:17:14;;;;;;;0.20;0.20;;;;;;;13.75;74.51;101431.88;5044246;28;20057;-85
2021/07/19 02:19:53;;;;;;;0.20;0.20;;;;;;;13.74;74.62;101429.41;5041371;28;20060;-84
2021/07/19 02:22:28;;;;;;;0.30;0.30;;;;;;;13.75;75.51;101423.69;5025857;28;20053;-84
2021/07/19 02:25:14;;;;;;;0.20;0.20;;;;;;;13.66;76.65;101428.09;5031506;28;20486;-84
2021/07/19 02:27:56;;;;;;;0.20;0.20;;;;;;;13.59;74.98;101435.81;5031073;28;20040;-85
2021/07/19 02:30:32;;;;;;;0.10;0.10;;;;;;;13.65;75.81;101425.66;5030266;28;20057;-84
2021/07/19 02:33:08;;;;;;;0.10;0.10;;;;;;;13.70;74.60;101429.16;5030914;28;20682;-85
2021/07/19 02:35:42;;;;;;;0.20;0.20;;;;;;;13.60;75.13;101427.31;5022223;28;20060;-84
2021/07/19 02:38:19;;;;;;;0.10;0.10;;;;;;;13.63;75.37;101430.56;5048891;28;20508;-85
2021/07/19 02:41:09;;;;;;;0.17;0.17;;;;;;;13.68;73.92;101420.41;5028029;28;20057;-83
2021/07/19 02:43:49;;;;;;;0.20;0.20;;;;;;;13.67;74.66;101427.00;5028065;28;20053;-85
2021/07/19 02:46:29;;;;;;;0.20;0.20;;;;;;;13.59;75.19;101425.66;5019578;28;20060;-85
2021/07/19 02:49:09;;;;;;;0.17;0.17;;;;;;;13.70;73.88;101431.06;5031149;28;20059;-84
2021/07/19 02:51:52;;;;;;;0.10;0.10;;;;;;;13.61;74.06;101425.38;5024427;28;20052;-84
2021/07/19 02:54:27;;;;;;;0.10;0.10;;;;;;;13.68;73.48;101427.81;5050992;28;20519;-85
2021/07/19 02:56:56;;;;;;;0.20;0.20;;;;;;;13.60;73.16;101415.53;5028455;28;20041;-84
2021/07/19 02:59:26;;;;;;;0.20;0.20;;;;;;;13.65;74.08;101421.00;5044934;28;20048;-84
2021/07/19 03:02:02;;;;;;;0.10;0.10;;;;;;;13.61;74.93;101420.72;5043512;28;20095;-84
2021/07/19 03:04:45;;;;;;;0.20;0.20;;;;;;;13.75;74.29;101420.09;5046340;28;20040;-85
2021/07/19 03:07:22;;;;;;;0.15;0.15;;;;;;;13.72;73.65;101429.69;5049995;28;20044;-84
2021/07/19 03:10:00;;;;;;;0.20;0.20;;;;;;;13.71;73.97;101433.56;5033164;28;20048;-84
2021/07/19 03:12:38;;;;;;;0.20;0.20;;;;;;;13.79;74.82;101429.38;5022867;28;20060;-84
2021/07/19 03:15:15;;;;;;;0.20;0.20;;;;;;;13.67;73.90;101420.69;5029617;28;20421;-85
2021/07/19 03:17:51;;;;;;;0.20;0.20;;;;;;;13.67;74.69;101424.28;5029871;28;20064;-85
2021/07/19 03:20:24;;;;;;;0.13;0.13;;;;;;;13.78;74.09;101425.84;5032554;28;20040;-84
2021/07/19 03:23:00;;;;;;;0.20;0.20;;;;;;;13.73;75.13;101428.59;5030237;28;20049;-85
2021/07/19 03:25:41;;;;;;;0.10;0.10;;;;;;;13.64;73.80;101424.81;5038929;28;20049;-85
2021/07/19 03:28:11;;;;;;;0.10;0.10;;;;;;;13.73;74.11;101436.00;5019736;28;20053;-85
2021/07/19 03:30:43;;;;;;;0.10;0.10;;;;;;;13.72;74.65;101428.88;5048497;28;20053;-85
2021/07/19 03:33:21;;;;;;;0.15;0.15;;;;;;;13.78;72.62;101435.94;5029525;28;20056;-85
2021/07/19 03:35:58;;;;;;;0.20;0.20;;;;;;;13.82;74.12;101434.28;5025274;28;20050;-85
2021/07/19 03:38:27;;;;;;;0.15;0.15;;;;;;;13.73;72.80;101428.59;5032714;28;20053;-85
2021/07/19 03:41:30;;;;;;;0.10;0.10;;;;;;;13.74;73.61;101424.78;5032789;28;20059;-85
2021/07/19 03:44:10;;;;;;;0.20;0.20;;;;;;;13.67;73.87;101431.66;5033811;28;20041;-85
2021/07/19 03:46:45;;;;;;;0.22;0.22;;;;;;;13.72;74.36;101429.69;5028655;28;20037;-85
2021/07/19 03:49:20;;;;;;;0.20;0.20;;;;;;;13.72;74.18;101424.22;5032423;28;20053;-85
2021/07/19 03:51:50;;;;;;;0.10;0.10;;;;;;;13.69;74.38;101421.25;5048978;28;20048;-85
2021/07/19 03:54:24;;;;;;;0.20;0.20;;;;;;;13.72;73.18;101437.09;5034622;28;20630;-85
2021/07/19 03:56:52;;;;;;;0.20;0.20;;;;;;;13.65;74.37;101426.47;5035548;28;20409;-86
2021/07/19 03:59:33;;;;;;;0.20;0.20;;;;;;;13.74;74.52;101427.50;5028588;28;20041;-85
2021/07/19 04:02:16;;;;;;;0.20;0.20;;;;;;;13.74;72.86;101419.31;5033284;28;20049;-84
2021/07/19 04:05:01;;;;;;;;;;;;;;;13.84;75.40;101423.09;5050887;28;20047;-85
2021/07/19 04:07:32;;;;;;;0.20;0.20;;;;;;;13.81;73.37;101421.72;5038050;28;19928;-85
2021/07/19 04:10:07;;;;;;;0.10;0.10;;;;;;;13.82;74.27;101417.06;5047664;28;20046;-85
2021/07/19 04:12:49;;;;;;;0.20;0.20;;;;;;;13.68;74.59;101412.22;5042058;28;20045;-85
2021/07/19 04:15:29;;;;;;;0.20;0.20;;;;;;;13.79;73.64;101440.31;5033864;28;20049;-85
2021/07/19 04:18:04;;;;;;;0.10;0.10;;;;;;;13.85;73.56;101421.97;5031147;28;20053;-85
2021/07/19 04:20:45;;;;;;;0.20;0.20;;;;;;;13.73;73.75;101431.34;5037767;28;20059;-85
2021/07/19 04:23:21;;;;;;;0.20;0.20;;;;;;;13.80;73.62;101439.22;5059879;28;20063;-85
2021/07/19 04:26:11;;;;;;;0.20;0.20;;;;;;;13.87;75.47;101436.19;5052957;28;20049;-85
2021/07/19 04:28:49;;;;;;;0.20;0.20;;;;;;;13.94;73.41;101434.75;5036267;28;20052;-84
2021/07/19 04:31:25;;;;;;;0.20;0.20;;;;;;;13.90;75.20;101436.41;5041260;28;20047;-84
2021/07/19 04:34:01;;;;;;;0.20;0.20;;;;;;;13.91;74.15;101437.25;5034717;28;20060;-84
2021/07/19 04:36:41;;;;;;;0.20;0.20;;;;;;;13.93;75.26;101437.78;5043872;28;20037;-84
2021/07/19 04:39:17;;;;;;;0.20;0.20;;;;;;;13.97;74.46;101443.50;5026861;28;20052;-84
2021/07/19 04:41:50;;;;;;;0.15;0.15;;;;;;;13.91;74.54;101450.94;5016192;28;20413;-85
2021/07/19 04:44:20;;;;;;;0.20;0.20;;;;;;;14.07;72.82;101441.53;5043386;28;20045;-85
2021/07/19 04:46:50;;;;;;;0.17;0.17;;;;;;;14.01;74.08;101450.06;5047904;28;20045;-85
2021/07/19 04:49:23;;;;;;;0.20;0.20;;;;;;;14.03;74.32;101443.19;5050574;28;20609;-85
2021/07/19 04:51:58;;;;;;;0.20;0.20;;;;;;;13.92;75.03;101444.34;5033484;28;20045;-85
2021/07/19 04:54:37;;;;;;;0.10;0.10;;;;;;;13.99;73.96;101444.88;5035016;28;20049;-85
2021/07/19 04:57:14;;;;;;;0.15;0.15;;;;;;;14.04;75.76;101453.03;5053685;28;20063;-85
2021/07/19 04:59:51;;;;;;;0.20;0.20;;;;;;;13.99;73.73;101450.34;5034417;28;20053;-85
2021/07/19 05:02:28;;;;;;;0.20;0.20;;;;;;;14.03;73.88;101451.41;5057200;28;20107;-84
2021/07/19 05:05:04;;;;;;;0.20;0.20;;;;;;;13.97;74.29;101454.44;5049935;28;20045;-85
2021/07/19 05:07:39;;;;;;;0.10;0.10;;;;;;;13.98;74.75;101461.56;5028880;28;20075;-85
2021/07/19 05:10:16;;;;;;;0.20;0.20;;;;;;;13.98;73.88;101459.66;5039144;28;20056;-85
2021/07/19 05:12:52;;;;;;;0.20;0.20;;;;;;;14.01;73.97;101453.59;5034989;28;20053;-84
2021/07/19 05:15:25;;;;;;;0.20;0.20;;;;;;;14.09;74.29;101453.00;5031543;28;20049;-84
2021/07/19 05:17:54;;;;;;;0.20;0.20;;;;;;;14.14;73.11;101459.53;5029490;28;20060;-84
2021/07/19 05:20:28;;;;;;;0.20;0.20;;;;;;;14.11;75.39;101453.53;5048612;28;20049;-84
2021/07/19 05:23:29;;;;;;;0.10;0.10;;;;;;;14.17;74.68;101461.69;5021293;28;20041;-84
2021/07/19 05:26:04;;;;;;;0.13;0.13;;;;;;;14.21;73.65;101458.13;5050190;28;20041;-84
2021/07/19 05:28:37;;;;;;;0.20;0.20;;;;;;;14.09;73.15;101452.19;5030440;28;20060;-84
2021/07/19 05:31:05;;;;;;;0.30;0.20;;;;;;;14.18;73.86;101466.88;5049226;28;20041;-83
2021/07/19 05:33:34;;;;;;;0.20;0.20;;;;;;;14.19;75.94;101468.53;5034341;28;20520;-84
2021/07/19 05:36:07;;;;;;;0.20;0.20;;;;;;;14.26;74.88;101469.00;5043222;28;20048;-84
2021/07/19 05:38:42;;;;;;;0.13;0.13;;;;;;;14.24;73.63;101470.41;5030374;28;20049;-83
2021/07/19 05:41:16;;;;;;;0.17;0.17;;;;;;;14.28;74.08;101466.00;5045554;28;20052;-84
2021/07/19 05:43:49;;;;;;;0.20;0.20;;;;;;;14.34;74.53;101470.34;5034731;28;20516;-84
2021/07/19 05:46:23;;;;;;;0.15;0.15;;;;;;;14.32;74.50;101471.72;5039886;28;20386;-83
2021/07/19 05:48:56;;;;;;;0.20;0.20;;;;;;;14.50;73.02;101478.41;5026285;28;20049;-83
2021/07/19 05:51:31;;;;;;;0.20;0.20;;;;;;;14.53;74.38;101475.09;5029795;28;20060;-83
2021/07/19 05:54:04;;;;;;;0.20;0.20;;;;;;;14.45;74.39;101465.59;5040925;28;20060;-83
2021/07/19 05:56:39;;;;;;;0.20;0.20;;;;;;;14.63;72.75;101483.28;5049928;28;20029;-83
2021/07/19 05:59:12;;;;;;;0.10;0.10;;;;;;;14.62;74.09;101479.72;5046851;28;20049;-84
2021/07/19 06:01:45;;;;;;;0.10;0.10;;;;;;;14.63;73.62;101478.59;5044322;28;20049;-84
2021/07/19 06:04:16;;;;;;;0.10;0.10;;;;;;;14.59;73.24;101488.47;5020317;28;20056;-84
2021/07/19 06:06:44;;;;;;;0.20;0.20;;;;;;;14.52;72.53;101487.97;5044619;28;20045;-85
2021/07/19 06:09:18;;;;;;;0.10;0.10;;;;;;;14.65;72.29;101482.97;5049822;28;20036;-85
2021/07/19 06:11:52;;;;;;;0.20;0.20;;;;;;;14.60;72.12;101489.31;5042229;28;20501;-84
2021/07/19 06:14:30;;;;;;;0.20;0.20;;;;;;;14.56;72.01;101494.53;5021165;28;20053;-84
2021/07/19 06:17:04;;;;;;;0.20;0.20;;;;;;;14.50;73.74;101484.72;5047626;28;20053;-83
2021/07/19 06:19:37;;;;;;;0.20;0.20;;;;;;;14.55;72.71;101497.56;5024747;28;20074;-84
2021/07/19 06:22:11;;;;;;;0.10;0.10;;;;;;;14.57;73.48;101500.81;5049748;28;20049;-83
2021/07/19 06:24:49;;;;;;;0.20;0.20;;;;;;;14.66;76.21;101510.09;5026284;28;20501;-84
2021/07/19 06:27:24;;;;;;;0.20;0.20;;;;;;;14.65;76.20;101493.94;5025022;28;20486;-83
2021/07/19 06:29:58;;;;;;;0.10;0.10;;;;;;;14.68;72.66;101493.34;5046510;28;20041;-83
2021/07/19 06:32:33;;;;;;;0.20;0.20;;;;;;;14.76;73.66;101500.94;5024826;28;20068;-83
2021/07/19 06:35:08;;;;;;;0.10;0.10;;;;;;;14.82;73.50;101499.81;5024766;28;20608;-83
2021/07/19 06:37:41;;;;;;;0.13;0.13;;;;;;;14.89;72.78;101489.31;5028411;28;20061;-83
2021/07/19 06:40:15;;;;;;;0.20;0.20;;;;;;;14.94;72.29;101494.78;5025719;28;20056;-83
2021/07/19 06:42:54;;;;;;;0.10;0.10;;;;;;;15.02;70.84;101497.97;5024289;28;20405;-83
2021/07/19 06:45:32;;;;;;;0.20;0.20;;;;;;;14.89;71.17;101488.53;5023583;28;20049;-84
2021/07/19 06:48:06;;;;;;;0.10;0.10;;;;;;;15.00;71.04;101483.72;5021888;28;20131;-83
2021/07/19 06:50:40;;;;;;;0.20;0.20;;;;;;;15.02;68.08;101476.84;5043802;28;20045;-83
2021/07/19 06:53:14;;;;;;;0.20;0.20;;;;;;;15.14;66.45;101479.22;5043205;28;20056;-83
2021/07/19 06:55:47;;;;;;;0.20;0.20;;;;;;;15.23;67.65;101480.22;5022500;28;20053;-83
2021/07/19 06:58:22;;;;;;;0.10;0.10;;;;;;;15.34;65.28;101475.41;5041638;28;20799;-84
2021/07/19 07:00:55;;;;;;;0.20;0.20;;;;;;;15.29;66.01;101479.03;5016198;28;20487;-83
2021/07/19 07:03:31;;;;;;;0.10;0.10;;;;;;;15.27;63.45;101492.22;5026365;28;20057;-84
2021/07/19 07:06:04;;;;;;;0.20;0.20;;;;;;;15.17;64.39;101492.31;5044193;28;20044;-86
2021/07/19 07:08:43;;;;;;;0.20;0.20;;;;;;;15.33;64.96;101489.41;5045066;28;20060;-82
2021/07/19 07:11:16;;;;;;;0.20;0.20;;;;;;;15.38;66.46;101489.34;5042789;28;20049;-83
2021/07/19 07:13:52;;;;;;;0.20;0.20;;;;;;;15.48;62.76;101484.56;5022466;28;20048;-84
2021/07/19 07:16:26;;;;;;;0.10;0.10;;;;;;;15.47;63.63;101493.91;5025055;28;20052;-83
2021/07/19 07:19:00;;;;;;;0.10;0.10;;;;;;;15.65;63.33;101495.03;5039396;28;20052;-84
2021/07/19 07:21:31;;;;;;;0.20;0.20;;;;;;;15.58;61.88;101494.59;5043287;28;20068;-85
2021/07/19 07:23:59;;;;;;;0.13;0.13;;;;;;;15.65;61.67;101478.56;5048791;28;20048;-83
2021/07/19 07:26:28;;;;;;;0.10;0.10;;;;;;;15.69;61.56;101486.22;5027373;28;20060;-83
2021/07/19 07:29:03;;;;;;;0.10;0.10;;;;;;;15.80;62.80;101496.00;5032224;28;20056;-84
2021/07/19 07:31:38;;;;;;;0.10;0.10;;;;;;;15.75;62.79;101491.34;5057419;28;20056;-84
2021/07/19 07:34:06;;;;;;;0.10;0.10;;;;;;;15.69;62.52;101495.28;5035125;28;20059;-83
2021/07/19 07:36:42;;;;;;;0.10;0.10;;;;;;;15.70;63.05;101493.34;5053031;28;20033;-84
2021/07/19 07:39:13;;;;;;;0.20;0.20;;;;;;;15.83;62.99;101491.84;5029772;28;20057;-86
2021/07/19 07:41:43;;;;;;;0.20;0.20;;;;;;;15.70;62.87;101483.19;5051721;28;20059;-87
2021/07/19 07:44:18;;;;;;;0.10;0.10;;;;;;;15.69;65.35;101494.44;5048038;28;20806;-86
2021/07/19 07:46:52;;;;;;;0.10;0.10;;;;;;;15.69;64.81;101500.78;5034885;28;20492;-84
2021/07/19 07:49:22;;;;;;;0.20;0.20;;;;;;;15.60;64.97;101503.31;5031092;28;20408;-85
2021/07/19 07:51:58;;;;;;;0.10;0.10;;;;;;;15.68;65.88;101499.13;5052036;28;20044;-84
2021/07/19 07:54:27;;;;;;;0.20;0.20;;;;;;;15.78;66.67;101506.41;5025914;28;21334;-84
2021/07/19 07:57:02;;;;;;;0.10;0.10;;;;;;;15.74;65.84;101499.88;5030669;28;20988;-85
2021/07/19 07:59:37;;;;;;;0.20;0.20;;;;;;;15.65;66.65;101496.97;5051380;28;20053;-84
2021/07/19 08:02:11;;;;;;;0.20;0.20;;;;;;;15.83;64.03;101503.63;5032364;28;20049;-85
2021/07/19 08:04:45;;;;;;;0.10;0.10;;;;;;;15.70;64.44;101498.81;5030838;28;20568;-85
2021/07/19 08:07:15;;;;;;;0.10;0.10;;;;;;;15.86;63.70;101497.53;5036127;28;20056;-85
2021/07/19 08:09:53;;;;;;;0.17;0.17;;;;;;;15.96;63.80;101497.41;5046709;28;20052;-85
2021/07/19 08:12:26;;;;;;;0.20;0.20;;;;;;;16.14;63.96;101497.69;5048857;28;20059;-85
2021/07/19 08:15:05;;;;;;;0.10;0.10;;;;;;;16.31;63.42;101488.94;5024542;28;20056;-85
2021/07/19 08:17:42;;;;;;;0.20;0.20;;;;;;;16.32;62.73;101493.28;5030730;28;20080;-85
2021/07/19 08:20:12;;;;;;;0.20;0.20;;;;;;;16.37;65.52;101484.19;5035395;28;20060;-85
2021/07/19 08:22:48;;;;;;;0.13;0.13;;;;;;;16.27;62.72;101471.44;5047847;28;20053;-85
2021/07/19 08:25:22;;;;;;;0.10;0.10;;;;;;;16.53;61.67;101488.31;5028961;28;20041;-85
2021/07/19 08:27:56;;;;;;;0.20;0.20;;;;;;;16.70;60.78;101482.25;5028696;28;21388;-85
2021/07/19 08:30:38;;;;;;;0.20;0.20;;;;;;;16.45;60.34;101480.75;5032217;28;20061;-84
2021/07/19 08:33:11;;;;;;;0.10;0.10;;;;;;;16.46;60.67;101480.44;5032300;28;20044;-85
2021/07/19 08:35:45;;;;;;;0.20;0.20;;;;;;;16.51;61.99;101479.53;5032152;28;20060;-85
2021/07/19 08:38:18;;;;;;;0.10;0.10;;;;;;;16.60;60.84;101482.41;5009291;28;20918;-85
2021/07/19 08:41:13;;;;;;;0.15;0.15;;;;;;;16.67;61.86;101486.41;5026447;28;20064;-86
2021/07/19 08:43:49;;;;;;;0.10;0.10;;;;;;;16.55;59.49;101480.56;5032342;28;20056;-85
2021/07/19 08:46:25;;;;;;;0.10;0.10;;;;;;;16.64;59.71;101476.03;5047894;28;20056;-85
2021/07/19 08:48:59;;;;;;;0.10;0.10;;;;;;;16.43;61.28;101466.47;5034728;28;20060;-85
2021/07/19 08:52:00;;;;;;;0.10;0.10;;;;;;;16.32;63.50;101477.66;5032243;28;20056;-85
2021/07/19 08:54:36;;;;;;;0.17;0.17;;;;;;;16.28;60.67;101473.88;5035284;28;20060;-86
2021/07/19 08:57:06;;;;;;;0.10;0.10;;;;;;;16.32;63.00;101480.41;5034641;28;20053;-85
2021/07/19 08:59:41;;;;;;;0.10;0.10;;;;;;;16.34;64.94;101469.09;5033236;28;20052;-85
2021/07/19 09:02:10;;;;;;;0.13;0.13;;;;;;;16.60;65.74;101474.16;5048798;28;20048;-86
2021/07/19 09:04:45;;;;;;;0.10;0.10;;;;;;;16.84;59.88;101444.59;5050902;28;20060;-86
2021/07/19 09:07:18;;;;;;;0.10;0.10;;;;;;;16.95;60.88;101455.44;5026595;28;20067;-84
2021/07/19 09:09:51;;;;;;;0.10;0.10;;;;;;;17.10;59.81;101463.38;5025554;28;20061;-86
2021/07/19 09:12:31;;;;;;;;;;;;;;;16.96;60.86;101457.88;5024895;28;20052;-86
2021/07/19 09:15:09;;;;;;;0.20;0.20;;;;;;;16.94;59.74;101448.28;5044055;28;19929;-86
2021/07/19 09:17:43;;;;;;;0.20;0.20;;;;;;;16.98;58.43;101449.31;5042851;28;21281;-86
2021/07/19 09:20:29;;;;;;;0.20;0.20;;;;;;;17.13;58.41;101451.75;5046783;28;20045;-86
2021/07/19 09:23:07;;;;;;;0.15;0.15;;;;;;;17.33;61.86;101450.56;5026993;28;20064;-85
2021/07/19 09:25:41;;;;;;;0.10;0.10;;;;;;;17.45;61.93;101446.47;5025408;28;20067;-85
2021/07/19 09:28:14;;;;;;;0.10;0.10;;;;;;;17.56;57.46;101447.06;5046186;28;20540;-84
2021/07/19 09:30:46;;;;;;;0.20;0.20;;;;;;;17.15;56.22;101445.97;5020171;28;20064;-85
2021/07/19 09:33:19;;;;;;;0.15;0.15;;;;;;;17.01;54.34;101440.47;5046814;28;20844;-85
2021/07/19 09:35:52;;;;;;;0.10;0.10;;;;;;;17.04;56.27;101434.38;5043845;28;20052;-86
2021/07/19 09:38:30;;;;;;;0.10;0.10;;;;;;;16.95;53.86;101438.94;5001379;28;20048;-86
2021/07/19 09:41:06;;;;;;;0.20;0.20;;;;;;;17.02;58.96;101436.59;5022652;28;20067;-89
2021/07/19 09:43:34;;;;;;;0.10;0.10;;;;;;;16.87;57.12;101428.63;5025424;28;20543;-86
2021/07/19 09:46:11;;;;;;;0.20;0.20;;;;;;;16.90;55.47;101444.53;5027424;28;20057;-86
2021/07/19 09:48:41;;;;;;;0.20;0.20;;;;;;;16.83;56.45;101437.47;5025118;28;20059;-86
2021/07/19 09:51:09;;;;;;;0.10;0.10;;;;;;;16.70;57.58;101445.72;5022851;28;20061;-85
2021/07/19 09:53:44;;;;;;;0.10;0.10;;;;;;;16.79;55.22;101441.94;5021837;28;20053;-85
2021/07/19 09:56:21;;;;;;;0.10;0.10;;;;;;;16.69;57.17;101427.59;5024112;28;20056;-86
2021/07/19 09:58:51;;;;;;;0.20;0.20;;;;;;;16.88;57.33;101439.31;5030324;28;20052;-86
2021/07/19 10:01:29;;;;;;;0.10;0.10;;;;;;;16.82;58.12;101443.25;5025490;28;20059;-85
2021/07/19 10:04:07;;;;;;;;;;;;;;;17.10;59.79;101440.59;5025723;28;20059;-86
2021/07/19 10:06:37;;;;;;;0.10;0.10;;;;;;;17.12;57.02;101439.16;5022365;28;19936;-85
2021/07/19 10:09:14;;;;;;;0.13;0.13;;;;;;;17.22;57.23;101445.56;5023201;28;20053;-85
2021/07/19 10:11:57;;;;;;;0.20;0.20;;;;;;;17.30;56.71;101442.91;5114008;27;20935;-86
2021/07/19 10:14:34;;;;;;;0.10;0.10;;;;;;;17.12;58.49;101446.56;5095308;28;20652;-85
2021/07/19 10:17:08;;;;;;;;;;;;;;;17.24;61.13;101455.13;5131568;27;20055;-85
2021/07/19 10:19:41;;;;;;;0.10;0.10;;;;;;;17.16;57.12;101450.34;5111341;28;19937;-86
2021/07/19 10:22:24;;;;;;;0.10;0.10;;;;;;;17.02;58.16;101449.53;5091971;28;20051;-85
2021/07/19 10:25:02;;;;;;;0.10;0.10;;;;;;;16.87;57.97;101445.13;5095876;28;20064;-85
2021/07/19 10:27:38;;;;;;;0.10;0.10;;;;;;;16.92;62.75;101447.81;5095867;28;20562;-85
2021/07/19 10:30:13;;;;;;;0.10;0.10;;;;;;;16.81;60.60;101444.41;5116491;28;20043;-85
2021/07/19 10:32:42;;;;;;;0.20;0.20;;;;;;;16.78;58.78;101448.56;5111735;28;20058;-85
2021/07/19 10:35:20;;;;;;;0.10;0.10;;;;;;;16.62;61.57;101444.47;5112850;28;20051;-85
2021/07/19 10:37:53;;;;;;;0.20;0.20;;;;;;;16.67;63.75;101449.88;5068375;28;20062;-86
2021/07/19 10:40:29;;;;;;;0.20;0.10;;;;;;;16.67;59.47;101444.38;5114400;27;20046;-85
2021/07/19 10:43:10;;;;;;;0.10;0.10;;;;;;;16.55;61.67;101427.56;5112658;27;20055;-85
2021/07/19 10:45:50;;;;;;;0.15;0.15;;;;;;;16.62;59.21;101427.97;5095554;28;20051;-85
2021/07/19 10:48:29;;;;;;;0.20;0.20;;;;;;;16.47;59.37;101443.63;5109056;28;20857;-85
2021/07/19 10:50:59;;;;;;;0.15;0.15;;;;;;;16.48;60.71;101431.50;5113403;27;20051;-85
2021/07/19 10:53:34;;;;;;;0.10;0.10;;;;;;;16.47;62.15;101427.13;5132749;27;20669;-85
2021/07/19 10:56:12;;;;;;;0.10;0.10;;;;;;;16.47;62.30;101434.53;5095520;28;21510;-84
2021/07/19 10:58:48;;;;;;;0.10;0.10;;;;;;;16.54;60.53;101434.97;5103295;28;20081;-85
2021/07/19 11:01:23;;;;;;;0.10;0.10;;;;;;;16.88;61.17;101430.25;5110245;28;20055;-84
2021/07/19 11:04:00;;;;;;;0.10;0.10;;;;;;;16.87;59.44;101425.88;5113342;28;20427;-85
2021/07/19 11:06:36;;;;;;;0.10;0.10;;;;;;;16.95;57.93;101430.69;5110387;28;20062;-86
2021/07/19 11:09:10;;;;;;;0.10;0.10;;;;;;;17.12;63.69;101441.06;5109665;27;20047;-85
2021/07/19 11:11:45;;;;;;;0.10;0.10;;;;;;;17.45;60.87;101438.19;5107653;28;20522;-85
2021/07/19 11:14:22;;;;;;;0.10;0.10;;;;;;;17.51;57.06;101432.28;5107499;28;20403;-85
2021/07/19 11:16:55;;;;;;;0.13;0.13;;;;;;;17.47;58.16;101422.22;5113372;27;20054;-84
2021/07/19 11:19:36;;;;;;;0.10;0.10;;;;;;;17.75;59.71;101430.41;5115120;28;20341;-84
2021/07/19 11:22:12;;;;;;;0.10;0.10;;;;;;;17.91;57.39;101431.72;5103679;28;20048;-85
2021/07/19 11:24:50;;;;;;;0.17;0.17;;;;;;;17.98;57.42;101425.75;5096150;28;20059;-83
2021/07/19 11:27:48;;;;;;;0.10;0.10;;;;;;;18.09;57.36;101432.66;5101762;28;20048;-86
2021/07/19 11:30:22;;;;;;;0.10;0.10;;;;;;;17.96;56.68;101428.00;5097614;28;20055;-85
2021/07/19 11:32:55;;;;;;;0.10;0.10;;;;;;;17.79;59.38;101429.47;5096908;28;20165;-86
2021/07/19 11:35:38;;;;;;;0.17;0.17;;;;;;;17.57;56.10;101424.72;5097257;28;20572;-86
2021/07/19 11:38:15;;;;;;;0.15;0.15;;;;;;;17.34;59.13;101416.41;5067541;28;20439;-85
2021/07/19 11:40:51;;;;;;;0.10;0.10;;;;;;;17.37;60.64;101425.16;5097592;27;20051;-85
2021/07/19 11:43:51;;;;;;;0.10;0.10;;;;;;;17.26;57.42;101414.41;5097058;28;20117;-87
2021/07/19 11:46:32;;;;;;;0.10;0.10;;;;;;;17.03;58.06;101415.41;5097622;28;20056;-86
2021/07/19 11:49:09;;;;;;;0.10;0.10;;;;;;;17.25;58.84;101423.75;5096400;28;20054;-86
2021/07/19 11:51:45;;;;;;;0.10;0.10;;;;;;;17.30;58.53;101423.66;5092588;28;21327;-85
2021/07/19 11:54:21;;;;;;;0.13;0.13;;;;;;;17.49;59.44;101401.50;5095086;28;20051;-85
2021/07/19 11:56:56;;;;;;;0.20;0.20;;;;;;;17.55;58.16;101407.69;5102676;28;20051;-85
2021/07/19 11:59:27;;;;;;;0.10;0.10;;;;;;;17.58;58.83;101414.53;5096828;28;20059;-85
2021/07/19 12:02:04;;;;;;;0.17;0.17;;;;;;;17.51;57.41;101410.28;5095743;28;20060;-85
2021/07/19 12:04:40;;;;;;;0.10;0.10;;;;;;;17.45;59.51;101405.19;5097496;28;20039;-85
2021/07/19 12:07:16;;;;;;;0.20;0.20;;;;;;;17.26;58.41;101403.38;5100446;27;20051;-84